Terminal Aerodrome Forecast
Issued by NWS

Home | Current Version | Previous Version | Text Only | Print | Product List | Glossary On
Versions: 1 2 3 4 5 6 7 8 9 10 11 12 13 14 15 16 17 18
000
FTUS41 KPBZ 050526
TAFAGC
TAF
KAGC 050526Z 0506/0606 00000KT 5SM BR SCT250
     FM050900 VRB03KT 3SM BR SCT250
     FM051400 16005KT P6SM SCT040 BKN250=

USA.gov is the U.S. government's official web portal to all federal, state and local government web resources and services.